createdAt,value
2019-03-20T00:00:05.306Z,0
2019-03-20T00:00:45.867Z,0
2019-03-20T00:01:26.456Z,0
2019-03-20T00:02:07.018Z,0
2019-03-20T00:02:47.568Z,0
2019-03-20T00:03:28.144Z,0
2019-03-20T00:04:08.735Z,0
2019-03-20T00:04:50.171Z,0
2019-03-20T00:05:29.835Z,0
2019-03-20T00:06:10.383Z,0
2019-03-20T00:06:50.950Z,0
2019-03-20T00:07:31.488Z,0
2019-03-20T00:08:12.070Z,0
2019-03-20T00:08:52.638Z,0
2019-03-20T00:09:33.180Z,0
2019-03-20T00:10:13.741Z,0
2019-03-20T00:10:54.288Z,0
2019-03-20T00:11:34.852Z,0
2019-03-20T00:12:15.427Z,0
2019-03-20T00:12:55.965Z,0
2019-03-20T00:13:36.530Z,0
2019-03-20T00:14:17.105Z,0
2019-03-20T00:14:57.643Z,0
2019-03-20T00:15:38.192Z,0
2019-03-20T00:16:18.774Z,0
2019-03-20T00:16:59.337Z,0
2019-03-20T00:17:39.895Z,0
2019-03-20T00:18:20.459Z,0
2019-03-20T00:19:01.013Z,0
2019-03-20T00:19:41.568Z,0
2019-03-20T00:20:22.119Z,0
2019-03-20T00:28:57.997Z,0
2019-03-20T00:29:38.553Z,0
2019-03-20T00:30:19.121Z,0
2019-03-20T00:30:59.698Z,0
2019-03-20T00:31:40.240Z,0
2019-03-20T00:32:20.865Z,0
2019-03-20T00:33:01.386Z,0
2019-03-20T00:33:41.916Z,0
2019-03-20T00:34:22.465Z,0
2019-03-20T00:35:03.039Z,0
2019-03-20T00:35:43.597Z,0
2019-03-20T00:36:24.161Z,0
2019-03-20T00:37:04.725Z,0
2019-03-20T00:37:45.274Z,0
2019-03-20T00:38:25.884Z,0
2019-03-20T00:39:06.455Z,0
2019-03-20T00:39:46.996Z,0
2019-03-20T00:40:27.563Z,0
2019-03-20T00:41:08.148Z,0
2019-03-20T00:41:48.716Z,0
2019-03-20T00:42:29.267Z,0
2019-03-20T00:43:09.834Z,0
2019-03-20T00:43:50.391Z,0
2019-03-20T00:44:30.956Z,0
2019-03-20T00:45:11.512Z,0
2019-03-20T00:45:52.065Z,0
2019-03-20T00:46:32.625Z,0
2019-03-20T00:47:13.187Z,0
2019-03-20T00:47:53.743Z,0
2019-03-20T00:48:34.299Z,0
2019-03-20T00:49:14.858Z,0
2019-03-20T00:49:57.846Z,0
2019-03-20T00:50:35.993Z,0
2019-03-20T00:51:16.603Z,0
2019-03-20T00:51:57.164Z,0
2019-03-20T00:52:37.720Z,0
2019-03-20T00:53:18.273Z,0
2019-03-20T00:53:58.841Z,0
2019-03-20T00:54:39.403Z,0
2019-03-20T00:55:19.970Z,0
2019-03-20T00:56:00.520Z,0
2019-03-20T00:56:41.576Z,0
2019-03-20T00:57:22.138Z,0
2019-03-20T00:58:02.694Z,0
2019-03-20T00:58:43.252Z,0
2019-03-20T00:59:23.832Z,0
2019-03-20T01:00:04.397Z,0
2019-03-20T01:00:44.953Z,0
2019-03-20T01:01:25.508Z,0
2019-03-20T01:02:06.055Z,0
2019-03-20T01:02:46.655Z,0
2019-03-20T01:03:27.223Z,0
2019-03-20T01:04:07.794Z,0
2019-03-20T01:04:48.372Z,0
2019-03-20T01:05:29.024Z,0
2019-03-20T01:06:09.519Z,0
2019-03-20T01:06:50.086Z,0
2019-03-20T01:07:30.640Z,0
2019-03-20T01:08:11.202Z,0
2019-03-20T01:08:51.784Z,0
2019-03-20T01:09:32.359Z,0
2019-03-20T01:10:12.940Z,0
2019-03-20T01:10:53.578Z,0
2019-03-20T01:11:34.138Z,0
2019-03-20T01:12:14.715Z,0
2019-03-20T01:12:55.293Z,0
2019-03-20T01:13:35.845Z,0
2019-03-20T01:14:16.434Z,0
2019-03-20T01:14:57.040Z,0
2019-03-20T01:15:37.640Z,0
2019-03-20T01:16:18.230Z,0
2019-03-20T01:16:58.790Z,0
2019-03-20T01:17:39.352Z,0
2019-03-20T01:18:22.251Z,0
2019-03-20T01:19:00.525Z,0
2019-03-20T01:19:41.079Z,0
2019-03-20T01:20:21.648Z,0
2019-03-20T01:21:02.199Z,0
2019-03-20T01:21:42.797Z,0
2019-03-20T01:22:23.332Z,0
2019-03-20T01:23:03.899Z,0
2019-03-20T01:23:44.452Z,0
2019-03-20T01:24:25.014Z,0
2019-03-20T01:25:05.584Z,0
2019-03-20T01:25:46.106Z,0
2019-03-20T01:26:26.683Z,0
2019-03-20T01:27:07.246Z,0
2019-03-20T01:27:47.832Z,0
2019-03-20T01:28:28.384Z,0
2019-03-20T01:29:08.953Z,0
2019-03-20T01:29:49.515Z,0
2019-03-20T01:30:30.088Z,0
2019-03-20T01:31:10.674Z,0
2019-03-20T01:31:51.240Z,0
2019-03-20T01:32:31.792Z,0
2019-03-20T01:33:12.346Z,0
2019-03-20T01:33:54.854Z,0
2019-03-20T01:34:33.560Z,0
2019-03-20T01:35:23.414Z,0
2019-03-20T01:35:54.648Z,0
2019-03-20T01:36:35.205Z,0
2019-03-20T01:37:15.781Z,0
2019-03-20T01:37:56.334Z,0
2019-03-20T01:38:36.882Z,0
2019-03-20T01:39:17.472Z,0
2019-03-20T01:39:58.034Z,0
2019-03-20T01:40:40.202Z,0
2019-03-20T01:41:19.175Z,0
2019-03-20T01:41:59.731Z,0
2019-03-20T01:42:40.280Z,0
2019-03-20T01:43:20.839Z,0
2019-03-20T01:44:01.425Z,0
2019-03-20T01:44:41.987Z,0
2019-03-20T01:45:22.543Z,0
2019-03-20T01:46:03.095Z,0
2019-03-20T01:46:43.662Z,0
2019-03-20T01:47:24.213Z,0
2019-03-20T01:48:04.773Z,0
2019-03-20T01:48:45.350Z,0
2019-03-20T01:49:26.785Z,0
2019-03-20T01:50:07.337Z,0
2019-03-20T01:50:47.896Z,0
2019-03-20T01:51:28.457Z,0
2019-03-20T01:52:08.997Z,0
2019-03-20T01:52:49.546Z,0
2019-03-20T01:53:30.097Z,0
2019-03-20T01:54:10.659Z,0
2019-03-20T01:54:51.212Z,0
2019-03-20T01:55:31.774Z,0
2019-03-20T01:56:12.318Z,0
2019-03-20T01:56:53.646Z,0
2019-03-20T01:57:34.198Z,0
2019-03-20T01:58:14.759Z,0
2019-03-20T01:58:55.330Z,0
2019-03-20T01:59:35.879Z,0
2019-03-20T02:00:16.430Z,0
2019-03-20T02:00:56.970Z,0
2019-03-20T02:01:37.519Z,0
2019-03-20T02:02:18.119Z,0
2019-03-20T02:02:58.672Z,0
2019-03-20T02:03:40.878Z,0
2019-03-20T02:04:19.785Z,0
2019-03-20T02:05:00.348Z,0
2019-03-20T02:05:40.939Z,0
2019-03-20T02:06:21.494Z,0
2019-03-20T02:07:02.083Z,0
2019-03-20T02:07:42.651Z,0
2019-03-20T02:08:23.255Z,0
2019-03-20T02:09:03.784Z,0
2019-03-20T02:09:44.361Z,0
2019-03-20T02:10:24.923Z,0
2019-03-20T02:11:05.480Z,0
2019-03-20T02:11:46.034Z,0
2019-03-20T02:12:26.604Z,0
2019-03-20T02:13:07.156Z,0
2019-03-20T02:13:47.742Z,0
2019-03-20T02:14:28.313Z,0
2019-03-20T02:15:08.851Z,0
2019-03-20T02:15:49.414Z,0
2019-03-20T02:16:29.968Z,0
2019-03-20T02:17:10.542Z,0
2019-03-20T02:17:51.097Z,0
2019-03-20T02:18:31.665Z,0
2019-03-20T02:19:12.227Z,0
2019-03-20T02:19:52.774Z,0
2019-03-20T02:20:33.349Z,0
2019-03-20T02:21:13.886Z,0
2019-03-20T02:21:54.442Z,0
2019-03-20T02:22:35.000Z,0
2019-03-20T02:23:15.553Z,0
2019-03-20T02:23:56.110Z,0
2019-03-20T02:24:36.650Z,0
2019-03-20T02:25:17.208Z,0
2019-03-20T02:25:57.768Z,0
2019-03-20T02:26:38.349Z,0
2019-03-20T02:27:18.882Z,0
2019-03-20T02:27:59.470Z,0
2019-03-20T02:28:40.025Z,0
2019-03-20T02:29:20.588Z,0
2019-03-20T02:30:01.129Z,0
2019-03-20T02:30:41.693Z,0
2019-03-20T02:31:22.246Z,0
2019-03-20T02:32:02.803Z,0
2019-03-20T02:32:43.362Z,0
2019-03-20T02:33:23.932Z,0
2019-03-20T02:34:04.492Z,0
2019-03-20T02:34:45.035Z,0
2019-03-20T02:35:25.600Z,0
2019-03-20T02:36:06.160Z,0
2019-03-20T02:36:46.722Z,0
2019-03-20T02:37:27.281Z,0
2019-03-20T02:38:07.839Z,0
2019-03-20T02:38:48.394Z,0
2019-03-20T02:39:28.964Z,0
2019-03-20T02:40:09.552Z,0
2019-03-20T02:40:50.101Z,0
2019-03-20T02:41:30.642Z,0
2019-03-20T02:42:11.206Z,0
2019-03-20T02:42:51.792Z,0
2019-03-20T02:43:32.333Z,0
2019-03-20T02:44:12.895Z,0
2019-03-20T02:44:53.453Z,0
2019-03-20T02:45:34.023Z,0
2019-03-20T02:46:14.578Z,0
2019-03-20T02:46:55.138Z,0
2019-03-20T02:47:35.690Z,0
2019-03-20T02:48:16.238Z,0
2019-03-20T02:48:56.851Z,0
2019-03-20T02:49:37.369Z,0
2019-03-20T02:50:17.923Z,0
2019-03-20T02:50:58.475Z,0
2019-03-20T02:51:39.020Z,0
2019-03-20T02:52:19.575Z,0
2019-03-20T02:53:00.121Z,0
2019-03-20T02:53:40.667Z,0
2019-03-20T02:54:21.236Z,0
2019-03-20T02:55:01.800Z,0
2019-03-20T02:55:42.346Z,0
2019-03-20T02:56:22.914Z,0
2019-03-20T02:57:03.494Z,0
2019-03-20T02:57:44.047Z,0
2019-03-20T02:58:24.637Z,0
2019-03-20T02:59:05.183Z,0
2019-03-20T02:59:45.748Z,0
2019-03-20T03:00:26.308Z,0
2019-03-20T03:01:06.893Z,0
2019-03-20T03:01:47.457Z,0
2019-03-20T03:02:28.002Z,0
2019-03-20T03:03:08.553Z,0
2019-03-20T03:03:49.105Z,0
2019-03-20T03:04:29.664Z,0
2019-03-20T03:05:10.240Z,0
2019-03-20T03:05:50.795Z,0
2019-03-20T03:06:31.353Z,0
2019-03-20T03:07:11.906Z,0
2019-03-20T03:07:52.465Z,0
2019-03-20T03:08:33.026Z,0
2019-03-20T03:09:13.582Z,0
2019-03-20T03:09:54.125Z,0
2019-03-20T03:10:34.688Z,0
2019-03-20T03:11:15.243Z,0
2019-03-20T03:11:55.793Z,0
2019-03-20T03:12:36.348Z,0
2019-03-20T03:13:16.941Z,0
2019-03-20T03:13:57.510Z,0
2019-03-20T03:14:38.077Z,0
2019-03-20T03:15:18.636Z,0
2019-03-20T03:15:59.194Z,0
2019-03-20T03:16:39.760Z,0
2019-03-20T03:17:20.312Z,0
2019-03-20T03:18:00.863Z,0
2019-03-20T03:18:41.453Z,0
2019-03-20T03:19:22.010Z,0
2019-03-20T03:20:02.590Z,0
2019-03-20T03:20:43.134Z,0
2019-03-20T03:21:23.697Z,0
2019-03-20T03:22:04.259Z,0
2019-03-20T03:22:44.923Z,0
2019-03-20T03:23:25.393Z,0
2019-03-20T03:24:05.948Z,0
2019-03-20T03:24:46.504Z,0
2019-03-20T03:25:27.059Z,0
2019-03-20T03:26:07.621Z,0
2019-03-20T03:26:48.185Z,0
2019-03-20T03:27:28.735Z,0
2019-03-20T03:28:09.293Z,0
2019-03-20T03:28:49.969Z,0
2019-03-20T03:29:30.431Z,0
2019-03-20T03:30:11.010Z,0
2019-03-20T03:30:51.564Z,0
2019-03-20T03:31:32.118Z,0
2019-03-20T03:32:12.682Z,0
2019-03-20T03:32:53.246Z,0
2019-03-20T03:33:33.817Z,0
2019-03-20T03:34:14.386Z,0
2019-03-20T03:34:54.946Z,0
2019-03-20T03:35:35.551Z,0
2019-03-20T03:36:21.390Z,0
2019-03-20T03:36:56.703Z,0
2019-03-20T03:37:37.298Z,0
2019-03-20T03:38:17.851Z,0
2019-03-20T03:38:58.411Z,0
2019-03-20T03:39:38.951Z,0
2019-03-20T03:40:19.510Z,0
2019-03-20T03:41:00.129Z,0
2019-03-20T03:41:40.631Z,0
2019-03-20T03:42:21.191Z,0
2019-03-20T03:43:01.836Z,0
2019-03-20T03:43:43.530Z,0
2019-03-20T03:44:24.082Z,0
2019-03-20T03:45:04.646Z,0
2019-03-20T03:45:45.195Z,0
2019-03-20T03:46:25.760Z,0
2019-03-20T03:47:06.321Z,0
2019-03-20T03:47:46.910Z,0
2019-03-20T03:48:27.447Z,0
2019-03-20T03:49:07.997Z,0
2019-03-20T03:49:48.558Z,0
2019-03-20T03:50:29.121Z,0
2019-03-20T03:51:09.668Z,0
2019-03-20T03:51:50.236Z,0
2019-03-20T03:52:30.800Z,0
2019-03-20T03:53:11.370Z,0
2019-03-20T03:53:51.934Z,0
2019-03-20T03:54:32.488Z,0
2019-03-20T03:55:13.043Z,0
2019-03-20T03:55:53.602Z,0
2019-03-20T03:56:34.158Z,0
2019-03-20T03:57:15.183Z,0
2019-03-20T03:57:55.751Z,0
2019-03-20T03:58:36.316Z,0
2019-03-20T03:59:16.874Z,0
2019-03-20T03:59:57.430Z,0
2019-03-20T04:00:37.974Z,0
2019-03-20T04:01:18.523Z,0
2019-03-20T04:01:59.067Z,0
2019-03-20T04:02:39.657Z,0
2019-03-20T04:03:20.214Z,0
2019-03-20T04:04:00.796Z,0
2019-03-20T04:04:41.371Z,0
2019-03-20T04:05:21.972Z,0
2019-03-20T04:06:02.482Z,0
2019-03-20T04:06:43.032Z,0
2019-03-20T04:07:23.919Z,0
2019-03-20T04:08:04.151Z,0
2019-03-20T04:08:44.711Z,0
2019-03-20T04:09:25.256Z,0
2019-03-20T04:10:05.820Z,0
2019-03-20T04:10:46.409Z,0
2019-03-20T04:11:26.973Z,0
2019-03-20T04:12:07.509Z,0
2019-03-20T04:12:48.073Z,0
2019-03-20T04:13:28.639Z,0
2019-03-20T04:14:09.194Z,0
2019-03-20T04:14:49.763Z,0
2019-03-20T04:15:30.326Z,0
2019-03-20T04:16:10.990Z,0
2019-03-20T04:16:51.546Z,0
2019-03-20T04:17:32.103Z,0
2019-03-20T04:18:12.658Z,0
2019-03-20T04:18:53.211Z,0
2019-03-20T04:19:33.766Z,0
2019-03-20T04:20:14.314Z,0
2019-03-20T04:20:54.867Z,0
2019-03-20T04:21:35.421Z,0
2019-03-20T04:22:15.964Z,0
2019-03-20T04:22:56.528Z,0
2019-03-20T04:23:37.085Z,0
2019-03-20T04:24:17.655Z,0
2019-03-20T04:24:58.201Z,0
2019-03-20T04:25:38.774Z,0
2019-03-20T04:26:19.338Z,0
2019-03-20T04:26:59.903Z,0
2019-03-20T04:27:40.462Z,0
2019-03-20T04:28:21.014Z,0
2019-03-20T04:29:01.578Z,0
2019-03-20T04:29:42.137Z,0
2019-03-20T04:30:22.694Z,0
2019-03-20T04:31:03.250Z,0
2019-03-20T04:31:43.815Z,0
2019-03-20T04:32:24.379Z,0
2019-03-20T04:33:04.962Z,0
2019-03-20T04:33:45.502Z,0
2019-03-20T04:34:26.069Z,0
2019-03-20T04:35:06.619Z,0
2019-03-20T04:35:47.179Z,0
2019-03-20T04:36:27.738Z,0
2019-03-20T04:37:08.288Z,4
2019-03-20T04:37:48.841Z,4
2019-03-20T04:38:29.394Z,4
2019-03-20T04:39:09.947Z,0
2019-03-20T04:39:50.511Z,0
2019-03-20T04:40:31.054Z,4
2019-03-20T04:41:11.601Z,4
2019-03-20T04:41:52.168Z,4
2019-03-20T04:42:32.735Z,4
2019-03-20T04:43:13.294Z,4
2019-03-20T04:43:53.833Z,4
2019-03-20T04:44:34.396Z,4
2019-03-20T04:45:14.942Z,8
2019-03-20T04:45:55.491Z,8
2019-03-20T04:46:36.036Z,8
2019-03-20T04:47:16.588Z,12
2019-03-20T04:47:57.155Z,12
2019-03-20T04:48:37.714Z,12
2019-03-20T04:49:18.309Z,16
2019-03-20T04:49:58.944Z,12
2019-03-20T04:50:39.479Z,16
2019-03-20T04:51:20.001Z,20
2019-03-20T04:52:00.567Z,20
2019-03-20T04:52:41.139Z,24
2019-03-20T04:53:21.702Z,24
2019-03-20T04:54:02.258Z,28
2019-03-20T04:54:42.812Z,32
2019-03-20T04:55:23.364Z,36
2019-03-20T04:56:03.934Z,40
2019-03-20T04:56:44.973Z,44
2019-03-20T04:57:25.540Z,48
2019-03-20T04:58:06.094Z,56
2019-03-20T04:58:46.656Z,60
2019-03-20T04:59:27.218Z,64
2019-03-20T05:00:07.789Z,68
2019-03-20T05:00:48.345Z,76
2019-03-20T05:01:28.901Z,84
2019-03-20T05:02:09.463Z,92
2019-03-20T05:02:50.027Z,96
2019-03-20T05:03:30.585Z,108
2019-03-20T05:04:11.149Z,112
2019-03-20T05:04:51.685Z,120
2019-03-20T05:05:32.270Z,128
2019-03-20T05:06:12.830Z,140
2019-03-20T05:06:58.570Z,152
2019-03-20T05:07:33.951Z,160
2019-03-20T05:08:14.523Z,172
2019-03-20T05:08:55.096Z,184
2019-03-20T05:09:35.647Z,196
2019-03-20T05:10:16.200Z,208
2019-03-20T05:10:57.463Z,220
2019-03-20T05:11:38.019Z,232
2019-03-20T05:12:18.582Z,248
2019-03-20T05:12:59.143Z,264
2019-03-20T05:13:39.701Z,276
2019-03-20T05:14:20.253Z,292
2019-03-20T05:15:00.820Z,308
2019-03-20T05:15:41.400Z,328
2019-03-20T05:16:21.978Z,344
2019-03-20T05:17:02.541Z,364
2019-03-20T05:17:43.104Z,384
2019-03-20T05:18:23.649Z,400
2019-03-20T05:19:04.206Z,420
2019-03-20T05:19:44.789Z,444
2019-03-20T05:20:25.355Z,468
2019-03-20T05:21:05.908Z,484
2019-03-20T05:21:46.468Z,508
2019-03-20T05:22:27.023Z,528
2019-03-20T05:23:08.541Z,552
2019-03-20T05:23:48.147Z,576
2019-03-20T05:24:28.760Z,592
2019-03-20T05:25:09.322Z,620
2019-03-20T05:25:49.894Z,644
2019-03-20T05:26:30.463Z,664
2019-03-20T05:27:11.048Z,692
2019-03-20T05:27:51.604Z,716
2019-03-20T05:28:32.166Z,744
2019-03-20T05:29:12.721Z,772
2019-03-20T05:29:53.276Z,800
2019-03-20T05:30:33.832Z,824
2019-03-20T05:31:14.389Z,852
2019-03-20T05:31:54.984Z,880
2019-03-20T05:32:35.538Z,904
2019-03-20T05:33:16.137Z,936
2019-03-20T05:33:56.709Z,964
2019-03-20T05:34:37.270Z,996
2019-03-20T05:35:17.820Z,1024
2019-03-20T05:35:58.383Z,1056
2019-03-20T05:36:38.912Z,1088
2019-03-20T05:37:19.483Z,1116
2019-03-20T05:38:00.026Z,1156
2019-03-20T05:38:40.577Z,1184
2019-03-20T05:39:21.120Z,1216
2019-03-20T05:40:01.678Z,1244
2019-03-20T05:40:42.224Z,1268
2019-03-20T05:41:22.794Z,1296
2019-03-20T05:42:03.356Z,1324
2019-03-20T05:42:43.906Z,1360
2019-03-20T05:43:24.483Z,1388
2019-03-20T05:44:05.031Z,1420
2019-03-20T05:44:45.608Z,1456
2019-03-20T05:45:26.161Z,1496
2019-03-20T05:46:06.788Z,1536
2019-03-20T05:46:47.336Z,1576
2019-03-20T05:47:27.921Z,1592
2019-03-20T05:48:08.487Z,1596
2019-03-20T05:48:49.032Z,1596
2019-03-20T05:49:29.674Z,1604
2019-03-20T05:50:10.400Z,1616
2019-03-20T05:50:51.109Z,1636
2019-03-20T05:51:31.669Z,1660
2019-03-20T05:52:12.396Z,1684
2019-03-20T05:52:52.945Z,1704
2019-03-20T05:53:33.508Z,1724
2019-03-20T05:54:14.090Z,1736
2019-03-20T05:54:54.667Z,1748
2019-03-20T05:55:35.265Z,1768
2019-03-20T05:56:15.832Z,1792
2019-03-20T05:56:56.431Z,1816
2019-03-20T05:57:37.048Z,1832
2019-03-20T05:58:17.855Z,1848
2019-03-20T05:58:58.498Z,1860
2019-03-20T05:59:39.093Z,1880
2019-03-20T06:00:19.786Z,1908
2019-03-20T06:01:00.369Z,1932
2019-03-20T06:01:42.701Z,1952
2019-03-20T06:02:25.681Z,1968
2019-03-20T06:03:04.194Z,1988
2019-03-20T06:03:44.777Z,2004
2019-03-20T06:04:25.350Z,2020
2019-03-20T06:05:05.921Z,2036
2019-03-20T06:05:46.477Z,2052
2019-03-20T06:06:27.035Z,2064
2019-03-20T06:07:07.612Z,2080
2019-03-20T06:07:48.169Z,2108
2019-03-20T06:08:31.137Z,2132
2019-03-20T06:09:09.344Z,2148
2019-03-20T06:09:49.941Z,2164
2019-03-20T06:10:30.529Z,2180
2019-03-20T06:11:11.089Z,2196
2019-03-20T06:11:51.727Z,2208
2019-03-20T06:12:32.286Z,2216
2019-03-20T06:13:12.881Z,2228
2019-03-20T06:13:53.435Z,2236
2019-03-20T06:14:34.041Z,2264
2019-03-20T06:15:14.581Z,2280
2019-03-20T06:15:55.144Z,2300
2019-03-20T06:16:35.704Z,2320
2019-03-20T06:17:16.255Z,2348
2019-03-20T06:17:56.805Z,2364
2019-03-20T06:18:37.376Z,2384
2019-03-20T06:19:17.934Z,2408
2019-03-20T06:19:58.491Z,2408
2019-03-20T06:20:39.049Z,2420
2019-03-20T06:21:19.633Z,2428
2019-03-20T06:22:00.210Z,2444
2019-03-20T06:22:40.776Z,2464
2019-03-20T06:23:21.359Z,2484
2019-03-20T06:24:01.908Z,2496
2019-03-20T06:24:42.471Z,2536
2019-03-20T06:25:23.034Z,2544
2019-03-20T06:26:03.601Z,2548
2019-03-20T06:26:44.169Z,2552
2019-03-20T06:27:24.729Z,2572
2019-03-20T06:28:05.304Z,2584
2019-03-20T06:28:45.870Z,2600
2019-03-20T06:29:26.431Z,2612
2019-03-20T06:30:06.978Z,2628
2019-03-20T06:30:47.537Z,2648
2019-03-20T06:31:28.144Z,2664
2019-03-20T06:32:08.690Z,2684
2019-03-20T06:32:49.269Z,2708
2019-03-20T06:33:30.184Z,2732
2019-03-20T06:34:10.786Z,2748
2019-03-20T06:34:51.335Z,2772
2019-03-20T06:35:31.886Z,2792
2019-03-20T06:36:12.573Z,2820
2019-03-20T06:36:53.145Z,2840
2019-03-20T06:37:33.875Z,2860
2019-03-20T06:38:14.461Z,2876
2019-03-20T06:38:55.020Z,2888
2019-03-20T06:39:35.618Z,2900
2019-03-20T06:40:16.189Z,2920
2019-03-20T06:40:56.766Z,2940
2019-03-20T06:41:37.330Z,2960
2019-03-20T06:42:17.885Z,2984
2019-03-20T06:42:58.476Z,3016
2019-03-20T06:43:39.053Z,3040
2019-03-20T06:44:19.619Z,3068
2019-03-20T06:45:00.363Z,3092
2019-03-20T06:45:40.738Z,3120
2019-03-20T06:46:21.291Z,3140
2019-03-20T06:47:01.848Z,3164
2019-03-20T06:47:42.434Z,3188
2019-03-20T06:48:22.989Z,3208
2019-03-20T06:49:03.555Z,3232
2019-03-20T06:49:44.180Z,3256
2019-03-20T06:50:24.708Z,3284
2019-03-20T06:51:05.278Z,3316
2019-03-20T06:51:45.849Z,3344
2019-03-20T06:52:26.420Z,3372
2019-03-20T06:53:06.986Z,3400
2019-03-20T06:53:47.553Z,3432
2019-03-20T06:54:28.107Z,3472
2019-03-20T06:55:08.672Z,3496
2019-03-20T06:55:49.276Z,3532
2019-03-20T06:56:29.832Z,3572
2019-03-20T06:57:10.395Z,3612
2019-03-20T06:57:50.956Z,3632
2019-03-20T06:58:31.553Z,3664
2019-03-20T06:59:12.114Z,3692
2019-03-20T06:59:52.683Z,3724
2019-03-20T07:00:33.282Z,3764
2019-03-20T07:01:13.848Z,3804
2019-03-20T07:01:54.393Z,3856
2019-03-20T07:02:34.953Z,3948
2019-03-20T07:03:15.500Z,7152
2019-03-20T07:03:56.056Z,16832
2019-03-20T07:04:36.603Z,24576
2019-03-20T07:05:17.166Z,35232
2019-03-20T07:05:57.721Z,48352
2019-03-20T07:06:38.277Z,62688
2019-03-20T07:07:18.826Z,60992
2019-03-20T07:07:59.390Z,48928
2019-03-20T07:08:39.972Z,39328
2019-03-20T07:09:20.555Z,33120
2019-03-20T07:10:01.114Z,34592
2019-03-20T07:10:41.667Z,35584
2019-03-20T07:11:22.286Z,39232
2019-03-20T07:12:02.851Z,43072
2019-03-20T07:12:43.409Z,48032
2019-03-20T07:13:23.966Z,50944
2019-03-20T07:14:04.524Z,62816
2019-03-20T07:14:45.108Z,72992
2019-03-20T07:15:25.671Z,59136
2019-03-20T07:16:06.227Z,44832
2019-03-20T07:16:46.809Z,34624
2019-03-20T07:17:27.434Z,29312
2019-03-20T07:18:07.988Z,30720
2019-03-20T07:18:48.585Z,34944
2019-03-20T07:19:29.154Z,32064
2019-03-20T07:20:09.704Z,33792
2019-03-20T07:20:50.265Z,31456
2019-03-20T07:21:30.809Z,32288
2019-03-20T07:22:11.397Z,33440
2019-03-20T07:22:51.935Z,36768
2019-03-20T07:23:32.513Z,31936
2019-03-20T07:24:13.087Z,25280
2019-03-20T07:24:53.673Z,22208
2019-03-20T07:25:34.248Z,26624
2019-03-20T07:26:14.817Z,34048
2019-03-20T07:26:55.405Z,42240
2019-03-20T07:27:35.973Z,45408
2019-03-20T07:28:16.562Z,53632
2019-03-20T07:28:57.180Z,62592
2019-03-20T07:29:37.762Z,68896
2019-03-20T07:30:18.289Z,71232
2019-03-20T07:30:58.879Z,69696
2019-03-20T07:31:39.977Z,69824
2019-03-20T07:32:20.523Z,71040
2019-03-20T07:33:01.229Z,70496
2019-03-20T07:33:42.057Z,65504
2019-03-20T07:34:22.943Z,59264
2019-03-20T07:35:03.760Z,61504
2019-03-20T07:35:44.504Z,69056
2019-03-20T07:36:25.257Z,74976
2019-03-20T07:37:05.954Z,73792
2019-03-20T07:37:55.483Z,76480
2019-03-20T07:38:27.129Z,80160
2019-03-20T07:39:07.694Z,81472
2019-03-20T07:39:48.317Z,85344
2019-03-20T07:40:28.890Z,83648
2019-03-20T07:41:09.471Z,87136
2019-03-20T07:41:50.002Z,87520
2019-03-20T07:42:30.606Z,86816
2019-03-20T07:43:11.212Z,85760
2019-03-20T07:43:51.766Z,84512
2019-03-20T07:44:32.399Z,84576
2019-03-20T07:45:12.962Z,86240
2019-03-20T07:45:53.541Z,87104
2019-03-20T07:46:34.108Z,88768
2019-03-20T07:47:14.663Z,90368
2019-03-20T07:47:55.828Z,92064
2019-03-20T07:48:36.405Z,90432
2019-03-20T07:49:17.082Z,91008
2019-03-20T07:49:57.695Z,92160
2019-03-20T07:50:38.286Z,93568
2019-03-20T07:51:18.879Z,92992
2019-03-20T07:51:59.628Z,93664
2019-03-20T07:52:40.224Z,93792
2019-03-20T07:53:20.893Z,94848
2019-03-20T07:54:01.463Z,95264
2019-03-20T07:54:42.024Z,94784
2019-03-20T07:55:22.629Z,95232
2019-03-20T07:56:03.202Z,94816
2019-03-20T07:56:44.255Z,91616
2019-03-20T07:57:24.824Z,91776
2019-03-20T07:58:05.399Z,95520
2019-03-20T07:58:46.032Z,97952
2019-03-20T07:59:26.641Z,94112
2019-03-20T08:00:07.242Z,94560
2019-03-20T08:00:47.803Z,98976
2019-03-20T08:01:28.364Z,99872
2019-03-20T08:02:08.931Z,97504
2019-03-20T08:02:49.526Z,96992
2019-03-20T08:03:30.098Z,100128
2019-03-20T08:04:10.677Z,101920
2019-03-20T08:04:51.308Z,100288
2019-03-20T08:05:31.849Z,99936
2019-03-20T08:06:12.409Z,99328
2019-03-20T08:06:52.968Z,96320
2019-03-20T08:07:33.557Z,97824
2019-03-20T08:08:14.123Z,97440
2019-03-20T08:08:54.690Z,97312
2019-03-20T08:09:35.474Z,95680
2019-03-20T08:10:15.974Z,94336
2019-03-20T08:10:56.553Z,92704
2019-03-20T08:11:37.232Z,93152
2019-03-20T08:12:18.000Z,93856
2019-03-20T08:12:58.975Z,93472
2019-03-20T08:13:40.154Z,91872
2019-03-20T08:14:21.229Z,89344
2019-03-20T08:15:02.236Z,88672
2019-03-20T08:15:43.043Z,87136
2019-03-20T08:16:23.636Z,88896
2019-03-20T08:17:04.216Z,88224
2019-03-20T08:17:44.790Z,87584
2019-03-20T08:18:25.371Z,84224
2019-03-20T08:19:05.917Z,82624
2019-03-20T08:19:46.488Z,82624
2019-03-20T08:20:27.107Z,85184
2019-03-20T08:21:07.679Z,86880
2019-03-20T08:21:48.245Z,86976
2019-03-20T08:22:28.822Z,84832
2019-03-20T08:23:09.381Z,83296
2019-03-20T08:23:50.085Z,82080
2019-03-20T08:24:30.658Z,83328
2019-03-20T08:25:11.284Z,86272
2019-03-20T08:25:51.858Z,90304
2019-03-20T08:26:32.460Z,91040
2019-03-20T08:27:13.038Z,85248
2019-03-20T08:27:53.611Z,80768
2019-03-20T08:28:34.213Z,65856
2019-03-20T08:29:14.738Z,68480
2019-03-20T08:29:55.349Z,61280
2019-03-20T08:30:35.888Z,58144
2019-03-20T08:31:16.463Z,53760
2019-03-20T08:31:57.033Z,49888
2019-03-20T08:32:37.607Z,43136
2019-03-20T08:33:18.183Z,33472
2019-03-20T08:33:58.768Z,26880
2019-03-20T08:34:39.359Z,23456
2019-03-20T08:35:19.990Z,21856
2019-03-20T08:36:00.589Z,20864
2019-03-20T08:36:41.231Z,20864
2019-03-20T08:37:21.865Z,20224
2019-03-20T08:38:02.434Z,19616
2019-03-20T08:38:43.015Z,19200
2019-03-20T08:39:23.640Z,18496
2019-03-20T08:40:04.222Z,17824
2019-03-20T08:40:44.792Z,17152
2019-03-20T08:41:25.366Z,16544
2019-03-20T08:42:05.940Z,15516
2019-03-20T08:42:46.520Z,15176
2019-03-20T08:43:27.088Z,14760
2019-03-20T08:44:07.650Z,14212
2019-03-20T08:44:48.241Z,13800
2019-03-20T08:45:28.812Z,13392
2019-03-20T08:46:09.380Z,12992
2019-03-20T08:46:49.967Z,12552
2019-03-20T08:47:30.563Z,12220
2019-03-20T08:48:11.169Z,11896
2019-03-20T08:48:51.740Z,11328
2019-03-20T08:49:32.331Z,10840
2019-03-20T08:50:12.890Z,9832
2019-03-20T08:50:53.446Z,9340
2019-03-20T08:51:33.997Z,10000
2019-03-20T08:52:14.571Z,9592
2019-03-20T08:52:55.137Z,9216
2019-03-20T08:53:35.703Z,9576
2019-03-20T08:54:16.267Z,9296
2019-03-20T08:54:56.840Z,9424
2019-03-20T08:55:37.418Z,9392
2019-03-20T08:56:17.991Z,9104
2019-03-20T08:56:59.047Z,8392
2019-03-20T08:57:39.613Z,8204
2019-03-20T08:58:20.182Z,8192
2019-03-20T08:59:00.760Z,8204
2019-03-20T08:59:41.332Z,7712
2019-03-20T09:00:21.914Z,7736
2019-03-20T09:01:02.470Z,7656
2019-03-20T09:01:43.050Z,7384
2019-03-20T09:02:23.624Z,7496
2019-03-20T09:03:04.200Z,7852
2019-03-20T09:03:44.774Z,7592
2019-03-20T09:04:25.349Z,7520
2019-03-20T09:05:05.884Z,7536
2019-03-20T09:05:46.457Z,7540
2019-03-20T09:06:27.015Z,7520
2019-03-20T09:07:07.596Z,7440
2019-03-20T09:07:48.218Z,7396
2019-03-20T09:08:29.941Z,7276
2019-03-20T09:09:09.357Z,7144
2019-03-20T09:09:50.835Z,6800
2019-03-20T09:10:30.495Z,6856
2019-03-20T09:11:11.061Z,6812
2019-03-20T09:11:51.627Z,6692
2019-03-20T09:12:32.202Z,6488
2019-03-20T09:13:12.807Z,6424
2019-03-20T09:13:53.385Z,6328
2019-03-20T09:14:33.947Z,6232
2019-03-20T09:15:14.510Z,6104
2019-03-20T09:15:55.089Z,5964
2019-03-20T09:16:35.657Z,5776
2019-03-20T09:17:16.226Z,5800
2019-03-20T09:17:56.799Z,5840
2019-03-20T09:18:37.377Z,5828
2019-03-20T09:19:17.934Z,5868
2019-03-20T09:19:58.489Z,5896
2019-03-20T09:20:39.055Z,5888
2019-03-20T09:21:19.603Z,5836
2019-03-20T09:22:00.171Z,5764
2019-03-20T09:22:40.741Z,5660
2019-03-20T09:23:21.325Z,5596
2019-03-20T09:24:01.888Z,5528
2019-03-20T09:24:42.463Z,5484
2019-03-20T09:25:23.013Z,5432
2019-03-20T09:26:03.606Z,5404
2019-03-20T09:26:44.173Z,5388
2019-03-20T09:27:24.731Z,5400
2019-03-20T09:28:05.330Z,5416
2019-03-20T09:28:45.883Z,5388
2019-03-20T09:29:35.532Z,5352
2019-03-20T09:30:07.042Z,5332
2019-03-20T09:30:47.608Z,5312
2019-03-20T09:31:28.166Z,5296
2019-03-20T09:32:08.737Z,5284
2019-03-20T09:32:49.316Z,5240
2019-03-20T09:33:29.907Z,5220
2019-03-20T09:34:10.470Z,5216